sensor_id;sensor_type;location;lat;lon;timestamp;P1;durP1;ratioP1;P2;durP2;ratioP2
42118;SDS011;27783;42.782;23.274;2023-08-17T00:01:57;16.77;;;14.07;;
42118;SDS011;27783;42.782;23.274;2023-08-17T00:04:22;13.75;;;12.75;;
42118;SDS011;27783;42.782;23.274;2023-08-17T00:06:48;12.43;;;11.25;;
42118;SDS011;27783;42.782;23.274;2023-08-17T00:09:15;12.65;;;11.50;;
42118;SDS011;27783;42.782;23.274;2023-08-17T00:11:41;11.50;;;10.40;;
42118;SDS011;27783;42.782;23.274;2023-08-17T00:14:09;10.77;;;9.85;;
42118;SDS011;27783;42.782;23.274;2023-08-17T00:16:35;10.27;;;9.27;;
42118;SDS011;27783;42.782;23.274;2023-08-17T00:19:01;10.85;;;9.90;;
42118;SDS011;27783;42.782;23.274;2023-08-17T00:21:29;11.32;;;8.65;;
42118;SDS011;27783;42.782;23.274;2023-08-17T00:26:23;8.43;;;7.63;;
42118;SDS011;27783;42.782;23.274;2023-08-17T00:28:50;9.80;;;8.07;;
42118;SDS011;27783;42.782;23.274;2023-08-17T00:31:15;8.98;;;8.07;;
42118;SDS011;27783;42.782;23.274;2023-08-17T00:33:41;9.45;;;8.65;;
42118;SDS011;27783;42.782;23.274;2023-08-17T00:36:06;9.68;;;8.25;;
42118;SDS011;27783;42.782;23.274;2023-08-17T00:38:31;8.73;;;7.90;;
42118;SDS011;27783;42.782;23.274;2023-08-17T00:40:58;7.85;;;7.00;;
42118;SDS011;27783;42.782;23.274;2023-08-17T00:43:24;8.85;;;7.30;;
42118;SDS011;27783;42.782;23.274;2023-08-17T00:45:52;10.63;;;7.00;;
42118;SDS011;27783;42.782;23.274;2023-08-17T00:48:18;11.02;;;7.72;;
42118;SDS011;27783;42.782;23.274;2023-08-17T00:50:45;8.27;;;6.97;;
42118;SDS011;27783;42.782;23.274;2023-08-17T00:53:20;9.23;;;6.97;;
42118;SDS011;27783;42.782;23.274;2023-08-17T00:55:47;9.57;;;7.35;;
42118;SDS011;27783;42.782;23.274;2023-08-17T00:58:13;8.27;;;6.72;;
42118;SDS011;27783;42.782;23.274;2023-08-17T01:00:42;7.90;;;6.70;;
42118;SDS011;27783;42.782;23.274;2023-08-17T01:03:08;8.65;;;6.85;;
42118;SDS011;27783;42.782;23.274;2023-08-17T01:05:34;10.25;;;7.45;;
42118;SDS011;27783;42.782;23.274;2023-08-17T01:08:03;7.35;;;6.75;;
42118;SDS011;27783;42.782;23.274;2023-08-17T01:10:37;9.18;;;7.00;;
42118;SDS011;27783;42.782;23.274;2023-08-17T01:13:24;7.55;;;6.88;;
42118;SDS011;27783;42.782;23.274;2023-08-17T01:15:56;8.90;;;8.02;;
42118;SDS011;27783;42.782;23.274;2023-08-17T01:18:26;9.38;;;7.68;;
42118;SDS011;27783;42.782;23.274;2023-08-17T01:20:56;9.07;;;8.00;;
42118;SDS011;27783;42.782;23.274;2023-08-17T01:23:23;10.68;;;9.57;;
42118;SDS011;27783;42.782;23.274;2023-08-17T01:25:50;10.23;;;8.60;;
42118;SDS011;27783;42.782;23.274;2023-08-17T01:28:16;9.32;;;8.02;;
42118;SDS011;27783;42.782;23.274;2023-08-17T01:30:49;8.30;;;7.38;;
42118;SDS011;27783;42.782;23.274;2023-08-17T01:33:40;9.95;;;8.73;;
42118;SDS011;27783;42.782;23.274;2023-08-17T01:39:02;13.68;;;9.30;;
42118;SDS011;27783;42.782;23.274;2023-08-17T01:41:29;8.93;;;8.20;;
42118;SDS011;27783;42.782;23.274;2023-08-17T01:43:57;10.00;;;8.88;;
42118;SDS011;27783;42.782;23.274;2023-08-17T01:46:32;11.32;;;9.65;;
42118;SDS011;27783;42.782;23.274;2023-08-17T01:51:25;11.98;;;10.85;;
42118;SDS011;27783;42.782;23.274;2023-08-17T01:53:50;11.88;;;10.68;;
42118;SDS011;27783;42.782;23.274;2023-08-17T01:56:16;10.73;;;9.73;;
42118;SDS011;27783;42.782;23.274;2023-08-17T01:58:43;11.32;;;9.23;;
42118;SDS011;27783;42.782;23.274;2023-08-17T02:01:11;10.50;;;8.60;;
42118;SDS011;27783;42.782;23.274;2023-08-17T02:03:37;10.57;;;9.55;;
42118;SDS011;27783;42.782;23.274;2023-08-17T02:06:03;11.20;;;10.13;;
42118;SDS011;27783;42.782;23.274;2023-08-17T02:08:30;11.32;;;10.40;;
42118;SDS011;27783;42.782;23.274;2023-08-17T02:10:59;10.15;;;9.25;;
42118;SDS011;27783;42.782;23.274;2023-08-17T02:13:33;10.45;;;9.48;;
42118;SDS011;27783;42.782;23.274;2023-08-17T02:16:00;10.90;;;9.95;;
42118;SDS011;27783;42.782;23.274;2023-08-17T02:18:26;12.45;;;9.60;;
42118;SDS011;27783;42.782;23.274;2023-08-17T02:20:55;10.20;;;9.20;;
42118;SDS011;27783;42.782;23.274;2023-08-17T02:23:22;10.52;;;9.50;;
42118;SDS011;27783;42.782;23.274;2023-08-17T02:26:01;13.57;;;9.98;;
42118;SDS011;27783;42.782;23.274;2023-08-17T02:28:27;11.52;;;10.38;;
42118;SDS011;27783;42.782;23.274;2023-08-17T02:30:55;9.98;;;8.98;;
42118;SDS011;27783;42.782;23.274;2023-08-17T02:33:20;13.60;;;8.73;;
42118;SDS011;27783;42.782;23.274;2023-08-17T02:35:49;11.73;;;10.60;;
42118;SDS011;27783;42.782;23.274;2023-08-17T02:38:16;10.10;;;9.10;;
42118;SDS011;27783;42.782;23.274;2023-08-17T02:40:55;13.43;;;10.23;;
42118;SDS011;27783;42.782;23.274;2023-08-17T02:43:23;10.15;;;9.23;;
42118;SDS011;27783;42.782;23.274;2023-08-17T02:45:49;10.80;;;9.80;;
42118;SDS011;27783;42.782;23.274;2023-08-17T02:48:15;9.85;;;9.05;;
42118;SDS011;27783;42.782;23.274;2023-08-17T02:50:42;11.90;;;10.52;;
42118;SDS011;27783;42.782;23.274;2023-08-17T02:53:08;10.25;;;9.40;;
42118;SDS011;27783;42.782;23.274;2023-08-17T02:55:34;11.13;;;9.38;;
42118;SDS011;27783;42.782;23.274;2023-08-17T03:00:27;10.75;;;9.80;;
42118;SDS011;27783;42.782;23.274;2023-08-17T03:02:53;11.05;;;9.80;;
42118;SDS011;27783;42.782;23.274;2023-08-17T03:05:19;12.77;;;9.65;;
42118;SDS011;27783;42.782;23.274;2023-08-17T03:07:44;17.20;;;10.23;;
42118;SDS011;27783;42.782;23.274;2023-08-17T03:10:09;11.38;;;10.30;;
42118;SDS011;27783;42.782;23.274;2023-08-17T03:12:35;12.98;;;9.82;;
42118;SDS011;27783;42.782;23.274;2023-08-17T03:15:02;13.40;;;10.68;;
42118;SDS011;27783;42.782;23.274;2023-08-17T03:17:29;12.05;;;11.15;;
42118;SDS011;27783;42.782;23.274;2023-08-17T03:19:54;10.88;;;9.73;;
42118;SDS011;27783;42.782;23.274;2023-08-17T03:22:21;11.48;;;10.32;;
42118;SDS011;27783;42.782;23.274;2023-08-17T03:24:46;11.75;;;10.65;;
42118;SDS011;27783;42.782;23.274;2023-08-17T03:27:14;11.60;;;10.48;;
42118;SDS011;27783;42.782;23.274;2023-08-17T03:29:42;16.48;;;10.25;;
42118;SDS011;27783;42.782;23.274;2023-08-17T03:32:09;12.93;;;11.65;;
42118;SDS011;27783;42.782;23.274;2023-08-17T03:34:36;12.52;;;11.02;;
42118;SDS011;27783;42.782;23.274;2023-08-17T03:37:03;12.70;;;11.60;;
42118;SDS011;27783;42.782;23.274;2023-08-17T03:39:31;12.43;;;11.35;;
42118;SDS011;27783;42.782;23.274;2023-08-17T03:41:58;11.65;;;10.48;;
42118;SDS011;27783;42.782;23.274;2023-08-17T03:44:24;12.65;;;11.63;;
42118;SDS011;27783;42.782;23.274;2023-08-17T03:46:49;14.73;;;10.82;;
42118;SDS011;27783;42.782;23.274;2023-08-17T03:49:16;14.15;;;12.77;;
42118;SDS011;27783;42.782;23.274;2023-08-17T03:51:42;13.00;;;11.65;;
42118;SDS011;27783;42.782;23.274;2023-08-17T03:54:11;12.07;;;10.90;;
42118;SDS011;27783;42.782;23.274;2023-08-17T03:56:51;12.45;;;11.38;;
42118;SDS011;27783;42.782;23.274;2023-08-17T03:59:25;11.95;;;11.05;;
42118;SDS011;27783;42.782;23.274;2023-08-17T04:01:55;12.32;;;11.25;;
42118;SDS011;27783;42.782;23.274;2023-08-17T04:04:23;12.00;;;10.23;;
42118;SDS011;27783;42.782;23.274;2023-08-17T04:06:49;11.68;;;10.50;;
42118;SDS011;27783;42.782;23.274;2023-08-17T04:09:15;11.57;;;10.50;;
42118;SDS011;27783;42.782;23.274;2023-08-17T04:11:41;11.13;;;9.27;;
42118;SDS011;27783;42.782;23.274;2023-08-17T04:14:08;10.75;;;9.73;;
42118;SDS011;27783;42.782;23.274;2023-08-17T04:16:34;10.73;;;9.68;;
42118;SDS011;27783;42.782;23.274;2023-08-17T04:19:04;11.52;;;10.32;;
42118;SDS011;27783;42.782;23.274;2023-08-17T04:21:30;11.15;;;10.25;;
42118;SDS011;27783;42.782;23.274;2023-08-17T04:23:56;12.43;;;11.15;;
42118;SDS011;27783;42.782;23.274;2023-08-17T04:26:22;11.60;;;10.50;;
42118;SDS011;27783;42.782;23.274;2023-08-17T04:28:49;11.50;;;10.40;;
42118;SDS011;27783;42.782;23.274;2023-08-17T04:31:14;13.25;;;9.55;;
42118;SDS011;27783;42.782;23.274;2023-08-17T04:33:42;10.80;;;9.63;;
42118;SDS011;27783;42.782;23.274;2023-08-17T04:36:07;10.90;;;9.95;;
42118;SDS011;27783;42.782;23.274;2023-08-17T04:38:33;12.10;;;9.57;;
42118;SDS011;27783;42.782;23.274;2023-08-17T04:40:58;11.43;;;10.25;;
42118;SDS011;27783;42.782;23.274;2023-08-17T04:43:24;11.00;;;10.10;;
42118;SDS011;27783;42.782;23.274;2023-08-17T04:45:51;10.88;;;9.77;;
42118;SDS011;27783;42.782;23.274;2023-08-17T04:48:17;11.13;;;10.02;;
42118;SDS011;27783;42.782;23.274;2023-08-17T04:50:42;12.43;;;9.32;;
42118;SDS011;27783;42.782;23.274;2023-08-17T04:53:09;9.38;;;8.50;;
42118;SDS011;27783;42.782;23.274;2023-08-17T04:55:36;10.90;;;8.32;;
42118;SDS011;27783;42.782;23.274;2023-08-17T04:58:02;14.02;;;9.10;;
42118;SDS011;27783;42.782;23.274;2023-08-17T05:00:29;10.40;;;8.63;;
42118;SDS011;27783;42.782;23.274;2023-08-17T05:02:55;10.63;;;6.93;;
42118;SDS011;27783;42.782;23.274;2023-08-17T05:05:23;9.13;;;8.23;;
42118;SDS011;27783;42.782;23.274;2023-08-17T05:07:48;8.38;;;7.78;;
42118;SDS011;27783;42.782;23.274;2023-08-17T05:10:14;8.77;;;7.78;;
42118;SDS011;27783;42.782;23.274;2023-08-17T05:12:41;8.95;;;7.40;;
42118;SDS011;27783;42.782;23.274;2023-08-17T05:15:12;8.32;;;7.63;;
42118;SDS011;27783;42.782;23.274;2023-08-17T05:17:41;11.40;;;8.38;;
42118;SDS011;27783;42.782;23.274;2023-08-17T05:20:07;9.23;;;8.43;;
42118;SDS011;27783;42.782;23.274;2023-08-17T05:22:33;10.75;;;9.30;;
42118;SDS011;27783;42.782;23.274;2023-08-17T05:24:59;10.15;;;8.38;;
42118;SDS011;27783;42.782;23.274;2023-08-17T05:27:25;9.27;;;8.40;;
42118;SDS011;27783;42.782;23.274;2023-08-17T05:29:50;9.27;;;8.57;;
42118;SDS011;27783;42.782;23.274;2023-08-17T05:32:18;9.35;;;8.48;;
42118;SDS011;27783;42.782;23.274;2023-08-17T05:34:44;8.75;;;7.25;;
42118;SDS011;27783;42.782;23.274;2023-08-17T05:37:10;23.52;;;21.30;;
42118;SDS011;27783;42.782;23.274;2023-08-17T05:39:38;10.48;;;9.18;;
42118;SDS011;27783;42.782;23.274;2023-08-17T05:42:04;11.85;;;8.50;;
42118;SDS011;27783;42.782;23.274;2023-08-17T05:44:30;10.25;;;9.23;;
42118;SDS011;27783;42.782;23.274;2023-08-17T05:46:55;9.55;;;8.60;;
42118;SDS011;27783;42.782;23.274;2023-08-17T05:49:23;10.98;;;9.20;;
42118;SDS011;27783;42.782;23.274;2023-08-17T05:51:50;8.95;;;8.10;;
42118;SDS011;27783;42.782;23.274;2023-08-17T05:54:18;10.73;;;9.40;;
42118;SDS011;27783;42.782;23.274;2023-08-17T05:56:43;10.07;;;9.13;;
42118;SDS011;27783;42.782;23.274;2023-08-17T05:59:13;10.57;;;8.80;;
42118;SDS011;27783;42.782;23.274;2023-08-17T06:01:39;10.17;;;8.83;;
42118;SDS011;27783;42.782;23.274;2023-08-17T06:06:34;9.07;;;8.23;;
42118;SDS011;27783;42.782;23.274;2023-08-17T06:09:01;10.57;;;8.60;;
42118;SDS011;27783;42.782;23.274;2023-08-17T06:11:26;9.20;;;8.35;;
42118;SDS011;27783;42.782;23.274;2023-08-17T06:13:56;10.32;;;8.23;;
42118;SDS011;27783;42.782;23.274;2023-08-17T06:16:22;9.32;;;8.43;;
42118;SDS011;27783;42.782;23.274;2023-08-17T06:18:49;9.60;;;8.80;;
42118;SDS011;27783;42.782;23.274;2023-08-17T06:24:00;9.88;;;8.50;;
42118;SDS011;27783;42.782;23.274;2023-08-17T06:26:26;9.73;;;8.00;;
42118;SDS011;27783;42.782;23.274;2023-08-17T06:29:17;9.77;;;7.85;;
42118;SDS011;27783;42.782;23.274;2023-08-17T06:32:00;11.60;;;8.50;;
42118;SDS011;27783;42.782;23.274;2023-08-17T06:34:44;8.30;;;7.65;;
42118;SDS011;27783;42.782;23.274;2023-08-17T06:37:10;8.02;;;7.30;;
42118;SDS011;27783;42.782;23.274;2023-08-17T06:42:16;9.82;;;8.43;;
42118;SDS011;27783;42.782;23.274;2023-08-17T06:44:41;8.68;;;7.78;;
42118;SDS011;27783;42.782;23.274;2023-08-17T06:47:08;11.40;;;8.57;;
42118;SDS011;27783;42.782;23.274;2023-08-17T06:49:34;18.58;;;8.30;;
42118;SDS011;27783;42.782;23.274;2023-08-17T06:52:00;8.77;;;8.00;;
42118;SDS011;27783;42.782;23.274;2023-08-17T06:54:26;8.75;;;7.32;;
42118;SDS011;27783;42.782;23.274;2023-08-17T06:56:52;8.88;;;7.00;;
42118;SDS011;27783;42.782;23.274;2023-08-17T06:59:18;8.48;;;7.00;;
42118;SDS011;27783;42.782;23.274;2023-08-17T07:01:44;8.45;;;7.10;;
42118;SDS011;27783;42.782;23.274;2023-08-17T07:04:11;6.93;;;6.25;;
42118;SDS011;27783;42.782;23.274;2023-08-17T07:06:38;7.68;;;6.97;;
42118;SDS011;27783;42.782;23.274;2023-08-17T07:09:03;8.85;;;6.45;;
42118;SDS011;27783;42.782;23.274;2023-08-17T07:11:32;6.68;;;6.05;;
42118;SDS011;27783;42.782;23.274;2023-08-17T07:13:57;7.25;;;6.55;;
42118;SDS011;27783;42.782;23.274;2023-08-17T07:16:23;7.45;;;5.07;;
42118;SDS011;27783;42.782;23.274;2023-08-17T07:18:49;6.68;;;5.65;;
42118;SDS011;27783;42.782;23.274;2023-08-17T07:21:14;5.93;;;4.85;;
42118;SDS011;27783;42.782;23.274;2023-08-17T07:23:43;6.38;;;5.78;;
42118;SDS011;27783;42.782;23.274;2023-08-17T07:26:10;6.63;;;5.85;;
42118;SDS011;27783;42.782;23.274;2023-08-17T07:28:58;5.80;;;5.30;;
42118;SDS011;27783;42.782;23.274;2023-08-17T07:31:23;4.50;;;4.10;;
42118;SDS011;27783;42.782;23.274;2023-08-17T07:33:50;5.80;;;5.20;;
42118;SDS011;27783;42.782;23.274;2023-08-17T07:36:18;7.35;;;4.95;;
42118;SDS011;27783;42.782;23.274;2023-08-17T07:38:45;7.72;;;4.60;;
42118;SDS011;27783;42.782;23.274;2023-08-17T07:41:11;5.72;;;5.22;;
42118;SDS011;27783;42.782;23.274;2023-08-17T07:43:39;7.13;;;4.68;;
42118;SDS011;27783;42.782;23.274;2023-08-17T07:46:04;5.72;;;4.63;;
42118;SDS011;27783;42.782;23.274;2023-08-17T07:48:43;9.43;;;5.18;;
42118;SDS011;27783;42.782;23.274;2023-08-17T07:51:08;6.95;;;5.43;;
42118;SDS011;27783;42.782;23.274;2023-08-17T07:53:34;9.00;;;5.85;;
42118;SDS011;27783;42.782;23.274;2023-08-17T07:56:05;6.45;;;5.80;;
42118;SDS011;27783;42.782;23.274;2023-08-17T07:58:32;6.28;;;5.68;;
42118;SDS011;27783;42.782;23.274;2023-08-17T08:01:00;6.05;;;5.03;;
42118;SDS011;27783;42.782;23.274;2023-08-17T08:03:26;6.80;;;5.53;;
42118;SDS011;27783;42.782;23.274;2023-08-17T08:05:51;5.38;;;4.68;;
42118;SDS011;27783;42.782;23.274;2023-08-17T08:08:30;7.60;;;5.18;;
42118;SDS011;27783;42.782;23.274;2023-08-17T08:14:05;7.13;;;5.68;;
42118;SDS011;27783;42.782;23.274;2023-08-17T08:16:34;6.78;;;4.55;;
42118;SDS011;27783;42.782;23.274;2023-08-17T08:21:29;5.38;;;4.68;;
42118;SDS011;27783;42.782;23.274;2023-08-17T08:23:54;6.93;;;5.00;;
42118;SDS011;27783;42.782;23.274;2023-08-17T08:26:21;6.57;;;4.60;;
42118;SDS011;27783;42.782;23.274;2023-08-17T08:28:47;5.47;;;4.60;;
42118;SDS011;27783;42.782;23.274;2023-08-17T08:31:14;5.95;;;4.95;;
42118;SDS011;27783;42.782;23.274;2023-08-17T08:33:42;8.27;;;5.22;;
42118;SDS011;27783;42.782;23.274;2023-08-17T08:36:11;6.03;;;4.57;;
42118;SDS011;27783;42.782;23.274;2023-08-17T08:38:36;4.53;;;4.13;;
42118;SDS011;27783;42.782;23.274;2023-08-17T08:41:03;5.93;;;4.65;;
42118;SDS011;27783;42.782;23.274;2023-08-17T08:43:30;4.90;;;4.50;;
42118;SDS011;27783;42.782;23.274;2023-08-17T08:45:57;6.13;;;3.60;;
42118;SDS011;27783;42.782;23.274;2023-08-17T08:48:26;3.70;;;3.40;;
42118;SDS011;27783;42.782;23.274;2023-08-17T08:50:52;7.22;;;3.42;;
42118;SDS011;27783;42.782;23.274;2023-08-17T08:55:55;4.55;;;3.30;;
42118;SDS011;27783;42.782;23.274;2023-08-17T08:58:24;6.10;;;3.78;;
42118;SDS011;27783;42.782;23.274;2023-08-17T09:00:53;6.63;;;4.13;;
42118;SDS011;27783;42.782;23.274;2023-08-17T09:03:20;5.95;;;3.90;;
42118;SDS011;27783;42.782;23.274;2023-08-17T09:05:47;5.05;;;3.30;;
42118;SDS011;27783;42.782;23.274;2023-08-17T09:08:15;7.47;;;4.38;;
42118;SDS011;27783;42.782;23.274;2023-08-17T09:10:48;5.20;;;4.70;;
42118;SDS011;27783;42.782;23.274;2023-08-17T09:13:15;5.55;;;4.30;;
42118;SDS011;27783;42.782;23.274;2023-08-17T09:15:41;4.85;;;4.30;;
42118;SDS011;27783;42.782;23.274;2023-08-17T09:18:08;5.38;;;4.80;;
42118;SDS011;27783;42.782;23.274;2023-08-17T09:20:38;5.68;;;5.18;;
42118;SDS011;27783;42.782;23.274;2023-08-17T09:23:14;4.38;;;4.05;;
42118;SDS011;27783;42.782;23.274;2023-08-17T09:25:47;5.45;;;4.80;;
42118;SDS011;27783;42.782;23.274;2023-08-17T09:28:15;4.43;;;4.13;;
42118;SDS011;27783;42.782;23.274;2023-08-17T09:30:58;4.90;;;4.05;;
42118;SDS011;27783;42.782;23.274;2023-08-17T09:33:35;6.28;;;4.05;;
42118;SDS011;27783;42.782;23.274;2023-08-17T09:36:02;4.57;;;4.18;;
42118;SDS011;27783;42.782;23.274;2023-08-17T09:38:28;4.75;;;3.95;;
42118;SDS011;27783;42.782;23.274;2023-08-17T09:41:05;7.47;;;3.60;;
42118;SDS011;27783;42.782;23.274;2023-08-17T09:49:14;5.18;;;3.50;;
42118;SDS011;27783;42.782;23.274;2023-08-17T09:51:45;7.28;;;3.90;;
42118;SDS011;27783;42.782;23.274;2023-08-17T09:54:23;7.15;;;4.22;;
42118;SDS011;27783;42.782;23.274;2023-08-17T09:56:52;5.45;;;4.03;;
42118;SDS011;27783;42.782;23.274;2023-08-17T09:59:20;3.13;;;2.93;;
42118;SDS011;27783;42.782;23.274;2023-08-17T10:01:48;5.57;;;3.40;;
42118;SDS011;27783;42.782;23.274;2023-08-17T10:04:20;5.45;;;3.33;;
42118;SDS011;27783;42.782;23.274;2023-08-17T10:07:00;5.00;;;2.90;;
42118;SDS011;27783;42.782;23.274;2023-08-17T10:09:49;5.28;;;3.55;;
42118;SDS011;27783;42.782;23.274;2023-08-17T10:12:22;3.90;;;3.15;;
42118;SDS011;27783;42.782;23.274;2023-08-17T10:17:58;6.45;;;3.85;;
42118;SDS011;27783;42.782;23.274;2023-08-17T10:21:09;2.95;;;2.70;;
42118;SDS011;27783;42.782;23.274;2023-08-17T10:23:42;3.95;;;3.40;;
42118;SDS011;27783;42.782;23.274;2023-08-17T10:26:12;4.30;;;2.58;;
42118;SDS011;27783;42.782;23.274;2023-08-17T10:28:37;5.10;;;3.05;;
42118;SDS011;27783;42.782;23.274;2023-08-17T10:31:07;2.85;;;2.42;;
42118;SDS011;27783;42.782;23.274;2023-08-17T10:33:32;5.68;;;2.95;;
42118;SDS011;27783;42.782;23.274;2023-08-17T10:38:27;6.50;;;3.30;;
42118;SDS011;27783;42.782;23.274;2023-08-17T10:46:36;3.75;;;2.40;;
42118;SDS011;27783;42.782;23.274;2023-08-17T10:49:06;4.57;;;3.15;;
42118;SDS011;27783;42.782;23.274;2023-08-17T10:51:59;4.88;;;2.95;;
42118;SDS011;27783;42.782;23.274;2023-08-17T10:57:43;3.45;;;3.15;;
42118;SDS011;27783;42.782;23.274;2023-08-17T11:00:15;5.70;;;3.10;;
42118;SDS011;27783;42.782;23.274;2023-08-17T11:03:10;5.28;;;3.30;;
42118;SDS011;27783;42.782;23.274;2023-08-17T11:05:51;3.78;;;2.92;;
42118;SDS011;27783;42.782;23.274;2023-08-17T11:08:50;2.88;;;2.67;;
42118;SDS011;27783;42.782;23.274;2023-08-17T11:11:20;3.17;;;2.90;;
42118;SDS011;27783;42.782;23.274;2023-08-17T11:14:06;3.70;;;3.47;;
42118;SDS011;27783;42.782;23.274;2023-08-17T11:16:54;4.97;;;3.00;;
42118;SDS011;27783;42.782;23.274;2023-08-17T11:19:43;4.10;;;3.22;;
42118;SDS011;27783;42.782;23.274;2023-08-17T11:22:09;3.92;;;3.05;;
42118;SDS011;27783;42.782;23.274;2023-08-17T11:24:34;3.53;;;3.08;;
42118;SDS011;27783;42.782;23.274;2023-08-17T11:27:05;4.25;;;3.20;;
42118;SDS011;27783;42.782;23.274;2023-08-17T11:29:33;3.83;;;3.30;;
42118;SDS011;27783;42.782;23.274;2023-08-17T11:32:00;4.03;;;3.17;;
42118;SDS011;27783;42.782;23.274;2023-08-17T11:34:25;3.97;;;3.45;;
42118;SDS011;27783;42.782;23.274;2023-08-17T11:36:56;3.55;;;3.25;;
42118;SDS011;27783;42.782;23.274;2023-08-17T11:39:23;3.25;;;2.95;;
42118;SDS011;27783;42.782;23.274;2023-08-17T11:41:49;6.63;;;3.15;;
42118;SDS011;27783;42.782;23.274;2023-08-17T11:44:18;4.43;;;3.00;;
42118;SDS011;27783;42.782;23.274;2023-08-17T11:46:49;10.32;;;3.67;;
42118;SDS011;27783;42.782;23.274;2023-08-17T11:49:19;7.35;;;3.33;;
42118;SDS011;27783;42.782;23.274;2023-08-17T11:51:44;3.60;;;3.30;;
42118;SDS011;27783;42.782;23.274;2023-08-17T11:54:13;5.78;;;2.97;;
42118;SDS011;27783;42.782;23.274;2023-08-17T11:56:39;4.03;;;3.20;;
42118;SDS011;27783;42.782;23.274;2023-08-17T11:59:12;3.40;;;3.03;;
42118;SDS011;27783;42.782;23.274;2023-08-17T12:01:46;4.03;;;3.13;;
42118;SDS011;27783;42.782;23.274;2023-08-17T12:04:15;3.78;;;3.40;;
42118;SDS011;27783;42.782;23.274;2023-08-17T12:06:43;4.17;;;2.80;;
42118;SDS011;27783;42.782;23.274;2023-08-17T12:09:22;8.98;;;3.28;;
42118;SDS011;27783;42.782;23.274;2023-08-17T12:11:48;3.47;;;3.17;;
42118;SDS011;27783;42.782;23.274;2023-08-17T12:14:19;4.20;;;3.10;;
42118;SDS011;27783;42.782;23.274;2023-08-17T12:16:45;4.00;;;3.40;;
42118;SDS011;27783;42.782;23.274;2023-08-17T12:19:14;4.03;;;2.92;;
42118;SDS011;27783;42.782;23.274;2023-08-17T12:21:41;4.32;;;3.10;;
42118;SDS011;27783;42.782;23.274;2023-08-17T12:24:28;3.40;;;2.80;;
42118;SDS011;27783;42.782;23.274;2023-08-17T12:26:57;6.32;;;3.38;;
42118;SDS011;27783;42.782;23.274;2023-08-17T12:29:23;3.22;;;2.92;;
42118;SDS011;27783;42.782;23.274;2023-08-17T12:31:51;5.45;;;3.08;;
42118;SDS011;27783;42.782;23.274;2023-08-17T12:34:17;3.70;;;3.40;;
42118;SDS011;27783;42.782;23.274;2023-08-17T12:36:43;5.13;;;3.80;;
42118;SDS011;27783;42.782;23.274;2023-08-17T12:39:09;4.25;;;3.20;;
42118;SDS011;27783;42.782;23.274;2023-08-17T12:41:36;5.88;;;3.83;;
42118;SDS011;27783;42.782;23.274;2023-08-17T12:44:03;2.95;;;2.65;;
42118;SDS011;27783;42.782;23.274;2023-08-17T12:46:29;5.38;;;3.08;;
42118;SDS011;27783;42.782;23.274;2023-08-17T12:48:57;3.17;;;2.78;;
42118;SDS011;27783;42.782;23.274;2023-08-17T12:51:24;4.13;;;2.55;;
42118;SDS011;27783;42.782;23.274;2023-08-17T12:53:50;3.10;;;2.90;;
42118;SDS011;27783;42.782;23.274;2023-08-17T12:56:17;5.15;;;2.88;;
42118;SDS011;27783;42.782;23.274;2023-08-17T12:58:43;3.10;;;2.90;;
42118;SDS011;27783;42.782;23.274;2023-08-17T13:01:09;4.47;;;2.90;;
42118;SDS011;27783;42.782;23.274;2023-08-17T13:03:34;3.38;;;3.08;;
42118;SDS011;27783;42.782;23.274;2023-08-17T13:06:01;3.63;;;3.33;;
42118;SDS011;27783;42.782;23.274;2023-08-17T13:08:30;3.33;;;2.67;;
42118;SDS011;27783;42.782;23.274;2023-08-17T13:10:56;4.05;;;2.90;;
42118;SDS011;27783;42.782;23.274;2023-08-17T13:13:23;3.13;;;2.80;;
42118;SDS011;27783;42.782;23.274;2023-08-17T13:18:14;3.13;;;2.58;;
42118;SDS011;27783;42.782;23.274;2023-08-17T13:20:48;4.10;;;2.88;;
42118;SDS011;27783;42.782;23.274;2023-08-17T13:23:15;3.65;;;3.35;;
42118;SDS011;27783;42.782;23.274;2023-08-17T13:25:44;3.50;;;3.00;;
42118;SDS011;27783;42.782;23.274;2023-08-17T13:30:39;7.45;;;3.63;;
42118;SDS011;27783;42.782;23.274;2023-08-17T13:33:05;2.42;;;2.28;;
42118;SDS011;27783;42.782;23.274;2023-08-17T13:35:31;5.13;;;3.00;;
42118;SDS011;27783;42.782;23.274;2023-08-17T13:37:58;5.03;;;2.90;;
42118;SDS011;27783;42.782;23.274;2023-08-17T13:40:25;3.47;;;3.17;;
42118;SDS011;27783;42.782;23.274;2023-08-17T13:42:52;5.35;;;3.22;;
42118;SDS011;27783;42.782;23.274;2023-08-17T13:45:17;3.72;;;2.40;;
42118;SDS011;27783;42.782;23.274;2023-08-17T13:47:42;3.13;;;2.83;;
42118;SDS011;27783;42.782;23.274;2023-08-17T13:50:11;3.90;;;2.83;;
42118;SDS011;27783;42.782;23.274;2023-08-17T13:52:38;3.72;;;2.72;;
42118;SDS011;27783;42.782;23.274;2023-08-17T13:55:03;3.63;;;2.38;;
42118;SDS011;27783;42.782;23.274;2023-08-17T13:57:30;3.00;;;2.60;;
42118;SDS011;27783;42.782;23.274;2023-08-17T13:59:57;3.30;;;3.00;;
42118;SDS011;27783;42.782;23.274;2023-08-17T14:02:22;3.53;;;2.60;;
42118;SDS011;27783;42.782;23.274;2023-08-17T14:04:48;3.72;;;2.88;;
42118;SDS011;27783;42.782;23.274;2023-08-17T14:07:14;8.43;;;2.83;;
42118;SDS011;27783;42.782;23.274;2023-08-17T14:12:06;4.53;;;2.90;;
42118;SDS011;27783;42.782;23.274;2023-08-17T14:14:34;3.83;;;2.85;;
42118;SDS011;27783;42.782;23.274;2023-08-17T14:17:11;4.93;;;3.22;;
42118;SDS011;27783;42.782;23.274;2023-08-17T14:19:36;4.97;;;2.85;;
42118;SDS011;27783;42.782;23.274;2023-08-17T14:22:03;5.90;;;2.95;;
42118;SDS011;27783;42.782;23.274;2023-08-17T14:24:31;3.45;;;2.80;;
42118;SDS011;27783;42.782;23.274;2023-08-17T14:26:58;7.57;;;3.17;;
42118;SDS011;27783;42.782;23.274;2023-08-17T14:29:24;4.22;;;3.15;;
42118;SDS011;27783;42.782;23.274;2023-08-17T14:34:16;6.27;;;2.90;;
42118;SDS011;27783;42.782;23.274;2023-08-17T14:36:46;4.68;;;4.07;;
42118;SDS011;27783;42.782;23.274;2023-08-17T14:39:14;3.03;;;2.72;;
42118;SDS011;27783;42.782;23.274;2023-08-17T14:42:01;4.50;;;2.60;;
42118;SDS011;27783;42.782;23.274;2023-08-17T14:44:26;4.68;;;2.40;;
42118;SDS011;27783;42.782;23.274;2023-08-17T14:46:53;6.38;;;2.67;;
42118;SDS011;27783;42.782;23.274;2023-08-17T14:49:20;2.72;;;2.53;;
42118;SDS011;27783;42.782;23.274;2023-08-17T14:51:46;3.92;;;2.70;;
42118;SDS011;27783;42.782;23.274;2023-08-17T14:54:14;3.33;;;2.80;;
42118;SDS011;27783;42.782;23.274;2023-08-17T14:56:39;4.15;;;3.05;;
42118;SDS011;27783;42.782;23.274;2023-08-17T14:59:06;5.03;;;3.10;;
42118;SDS011;27783;42.782;23.274;2023-08-17T15:01:31;4.55;;;2.72;;
42118;SDS011;27783;42.782;23.274;2023-08-17T15:03:58;8.38;;;2.92;;
42118;SDS011;27783;42.782;23.274;2023-08-17T15:06:23;3.85;;;2.15;;
42118;SDS011;27783;42.782;23.274;2023-08-17T15:08:53;3.30;;;2.35;;
42118;SDS011;27783;42.782;23.274;2023-08-17T15:11:19;2.50;;;2.30;;
42118;SDS011;27783;42.782;23.274;2023-08-17T15:13:45;2.80;;;2.42;;
42118;SDS011;27783;42.782;23.274;2023-08-17T15:16:11;3.25;;;2.25;;
42118;SDS011;27783;42.782;23.274;2023-08-17T15:18:39;3.65;;;2.75;;
42118;SDS011;27783;42.782;23.274;2023-08-17T15:21:08;3.67;;;3.00;;
42118;SDS011;27783;42.782;23.274;2023-08-17T15:23:35;3.50;;;2.58;;
42118;SDS011;27783;42.782;23.274;2023-08-17T15:26:07;4.32;;;2.72;;
42118;SDS011;27783;42.782;23.274;2023-08-17T15:28:32;3.30;;;3.00;;
42118;SDS011;27783;42.782;23.274;2023-08-17T15:31:04;2.67;;;2.38;;
42118;SDS011;27783;42.782;23.274;2023-08-17T15:33:32;3.55;;;2.95;;